createdAt,value
2022-08-21T00:01:47.080Z,23.39
2022-08-21T00:04:22.150Z,23.35
2022-08-21T00:06:52.009Z,23.32
2022-08-21T00:09:20.527Z,23.31
2022-08-21T00:11:49.025Z,23.28
2022-08-21T00:14:17.532Z,23.28
2022-08-21T00:16:45.872Z,23.28
2022-08-21T00:19:14.155Z,23.29
2022-08-21T00:21:44.460Z,23.26
2022-08-21T00:24:13.432Z,23.23
2022-08-21T00:26:41.200Z,23.24
2022-08-21T00:29:09.211Z,23.27
2022-08-21T00:31:38.305Z,23.29
2022-08-21T00:34:06.419Z,23.30
2022-08-21T00:36:35.028Z,23.31
2022-08-21T00:39:03.461Z,23.31
2022-08-21T00:41:36.851Z,23.28
2022-08-21T00:44:11.524Z,23.22
2022-08-21T00:46:39.588Z,23.12
2022-08-21T00:49:08.590Z,23.02
2022-08-21T00:51:39.735Z,22.95
2022-08-21T00:54:16.102Z,22.91
2022-08-21T00:56:54.365Z,22.91
2022-08-21T00:59:24.544Z,22.92
2022-08-21T01:01:53.266Z,22.95
2022-08-21T01:04:22.081Z,22.97
2022-08-21T01:06:49.996Z,22.98
2022-08-21T01:09:19.177Z,22.98
2022-08-21T01:11:47.624Z,22.98
2022-08-21T01:14:16.040Z,23.00
2022-08-21T01:16:45.171Z,23.03
2022-08-21T01:19:13.378Z,23.06
2022-08-21T01:21:41.188Z,23.07
2022-08-21T01:24:09.486Z,23.07
2022-08-21T01:26:37.660Z,23.06
2022-08-21T01:29:06.074Z,23.07
2022-08-21T01:31:34.734Z,23.08
2022-08-21T01:34:02.672Z,23.06
2022-08-21T01:36:30.553Z,23.06
2022-08-21T01:38:58.986Z,23.03
2022-08-21T01:41:27.098Z,23.03
2022-08-21T01:43:55.373Z,23.02
2022-08-21T01:46:23.850Z,23.02
2022-08-21T01:48:51.857Z,23.03
2022-08-21T01:51:20.106Z,23.03
2022-08-21T01:53:48.234Z,23.01
2022-08-21T01:56:16.734Z,23.02
2022-08-21T01:58:45.851Z,23.01
2022-08-21T02:01:14.005Z,22.99
2022-08-21T02:03:42.302Z,22.98
2022-08-21T02:06:14.495Z,22.96
2022-08-21T02:08:42.352Z,22.94
2022-08-21T02:11:10.290Z,22.95
2022-08-21T02:13:38.629Z,22.97
2022-08-21T02:16:07.899Z,22.98
2022-08-21T02:18:36.024Z,22.98
2022-08-21T02:21:04.755Z,23.00
2022-08-21T02:23:34.113Z,23.00
2022-08-21T02:26:02.946Z,23.03
2022-08-21T02:28:32.224Z,23.06
2022-08-21T02:31:00.309Z,23.05
2022-08-21T02:33:28.894Z,23.05
2022-08-21T02:35:57.388Z,23.07
2022-08-21T02:38:27.448Z,23.06
2022-08-21T02:40:56.321Z,23.05
2022-08-21T02:43:25.239Z,23.05
2022-08-21T02:45:54.899Z,23.04
2022-08-21T02:48:24.538Z,23.05
2022-08-21T02:50:54.265Z,23.05
2022-08-21T02:53:22.186Z,23.02
2022-08-21T02:55:51.561Z,23.00
2022-08-21T02:58:22.089Z,22.98
2022-08-21T03:00:50.921Z,22.95
2022-08-21T03:03:19.048Z,22.92
2022-08-21T03:05:46.953Z,22.85
2022-08-21T03:08:16.439Z,22.76
2022-08-21T03:10:47.657Z,22.70
2022-08-21T03:13:15.807Z,22.66
2022-08-21T03:15:44.647Z,22.65
2022-08-21T03:18:13.092Z,22.67
2022-08-21T03:20:42.315Z,22.69
2022-08-21T03:23:14.148Z,22.69
2022-08-21T03:25:45.523Z,22.67
2022-08-21T03:28:15.865Z,22.68
2022-08-21T03:30:45.148Z,22.65
2022-08-21T03:33:15.020Z,22.63
2022-08-21T03:35:44.898Z,22.62
2022-08-21T03:38:14.206Z,22.62
2022-08-21T03:40:43.176Z,22.60
2022-08-21T03:43:11.653Z,22.58
2022-08-21T03:45:40.542Z,22.54
2022-08-21T03:48:10.132Z,22.54
2022-08-21T03:50:41.208Z,22.55
2022-08-21T03:53:16.463Z,22.55
2022-08-21T03:55:47.751Z,22.57
2022-08-21T03:58:17.916Z,22.55
2022-08-21T04:00:46.930Z,22.55
2022-08-21T04:03:15.101Z,22.53
2022-08-21T04:05:43.359Z,22.53
2022-08-21T04:08:11.513Z,22.51
2022-08-21T04:10:40.326Z,22.50
2022-08-21T04:13:09.306Z,22.46
2022-08-21T04:15:37.733Z,22.47
2022-08-21T04:18:05.739Z,22.48
2022-08-21T04:20:34.245Z,22.48
2022-08-21T04:23:03.030Z,22.46
2022-08-21T04:25:31.040Z,22.42
2022-08-21T04:27:59.782Z,22.39
2022-08-21T04:30:28.940Z,22.40
2022-08-21T04:32:58.281Z,22.43
2022-08-21T04:35:27.570Z,22.46
2022-08-21T04:37:56.041Z,22.48
2022-08-21T04:40:26.787Z,22.48
2022-08-21T04:43:06.184Z,22.48
2022-08-21T04:45:42.317Z,22.50
2022-08-21T04:48:14.119Z,22.49
2022-08-21T04:50:42.816Z,22.51
2022-08-21T04:53:19.368Z,22.52
2022-08-21T04:55:48.469Z,22.56
2022-08-21T04:58:18.533Z,22.63
2022-08-21T05:00:47.264Z,22.66
2022-08-21T05:03:17.060Z,22.65
2022-08-21T05:05:45.293Z,22.60
2022-08-21T05:08:15.698Z,22.55
2022-08-21T05:10:45.641Z,22.51
2022-08-21T05:13:14.311Z,22.47
2022-08-21T05:15:42.904Z,22.43
2022-08-21T05:18:11.047Z,22.38
2022-08-21T05:20:39.030Z,22.37
2022-08-21T05:23:11.071Z,22.35
2022-08-21T05:25:39.231Z,22.36
2022-08-21T05:28:07.575Z,22.39
2022-08-21T05:30:36.628Z,22.44
2022-08-21T05:33:05.524Z,22.51
2022-08-21T05:35:34.182Z,22.58
2022-08-21T05:38:02.545Z,22.67
2022-08-21T05:40:30.993Z,22.74
2022-08-21T05:43:00.510Z,22.81
2022-08-21T05:45:42.969Z,22.88
2022-08-21T05:48:12.321Z,22.96
2022-08-21T05:50:40.952Z,23.02
2022-08-21T05:53:10.584Z,23.10
2022-08-21T05:55:44.842Z,23.15
2022-08-21T05:58:15.094Z,23.19
2022-08-21T06:00:44.229Z,23.20
2022-08-21T06:03:15.456Z,23.24
2022-08-21T06:05:44.858Z,23.31
2022-08-21T06:08:13.277Z,23.32
2022-08-21T06:10:41.916Z,23.36
2022-08-21T06:13:10.226Z,23.41
2022-08-21T06:15:39.583Z,23.45
2022-08-21T06:18:08.058Z,23.51
2022-08-21T06:20:36.504Z,23.59
2022-08-21T06:23:04.652Z,23.66
2022-08-21T06:25:33.072Z,23.68
2022-08-21T06:28:06.064Z,23.69
2022-08-21T06:30:35.292Z,23.70
2022-08-21T06:33:04.131Z,23.74
2022-08-21T06:35:32.038Z,23.77
2022-08-21T06:38:00.702Z,23.82
2022-08-21T06:40:29.840Z,23.84
2022-08-21T06:42:59.426Z,23.84
2022-08-21T06:45:31.698Z,23.87
2022-08-21T06:48:01.019Z,23.91
2022-08-21T06:50:29.714Z,23.91
2022-08-21T06:53:07.188Z,23.98
2022-08-21T06:55:35.176Z,24.04
2022-08-21T06:58:05.020Z,24.05
2022-08-21T07:00:34.082Z,24.13
2022-08-21T07:03:02.469Z,24.21
2022-08-21T07:05:30.937Z,24.28
2022-08-21T07:07:59.607Z,24.37
2022-08-21T07:10:28.841Z,24.43
2022-08-21T07:13:00.973Z,24.46
2022-08-21T07:15:30.854Z,24.47
2022-08-21T07:18:00.335Z,24.48
2022-08-21T07:20:29.973Z,24.50
2022-08-21T07:23:01.082Z,24.53
2022-08-21T07:25:29.467Z,24.56
2022-08-21T07:27:57.499Z,24.55
2022-08-21T07:30:26.559Z,24.59
2022-08-21T07:32:54.745Z,24.65
2022-08-21T07:35:22.952Z,24.71
2022-08-21T07:37:50.862Z,24.76
2022-08-21T07:40:19.767Z,24.85
2022-08-21T07:42:51.224Z,24.92
2022-08-21T07:45:21.571Z,24.99
2022-08-21T07:47:52.051Z,25.02
2022-08-21T07:50:23.331Z,25.09
2022-08-21T07:52:52.306Z,25.20
2022-08-21T07:55:20.862Z,25.24
2022-08-21T07:57:49.070Z,25.25
2022-08-21T08:00:19.624Z,25.24
2022-08-21T08:02:51.088Z,25.22
2022-08-21T08:05:21.026Z,25.22
2022-08-21T08:07:49.016Z,25.27
2022-08-21T08:10:17.290Z,25.31
2022-08-21T08:12:45.825Z,25.37
2022-08-21T08:15:17.377Z,25.43
2022-08-21T08:17:46.157Z,25.49
2022-08-21T08:20:15.674Z,25.51
2022-08-21T08:22:44.301Z,25.53
2022-08-21T08:25:19.631Z,25.53
2022-08-21T08:27:48.076Z,25.57
2022-08-21T08:30:17.985Z,25.57
2022-08-21T08:32:46.536Z,25.60
2022-08-21T08:35:15.236Z,25.64
2022-08-21T08:37:44.022Z,25.72
2022-08-21T08:40:31.975Z,25.85
2022-08-21T08:43:01.123Z,25.96
2022-08-21T08:45:38.558Z,26.03
2022-08-21T08:48:14.141Z,26.19
2022-08-21T08:50:47.972Z,26.29
2022-08-21T08:53:19.091Z,26.39
2022-08-21T08:55:47.249Z,26.39
2022-08-21T08:58:20.209Z,26.34
2022-08-21T09:00:50.559Z,26.43
2022-08-21T09:03:19.127Z,26.54
2022-08-21T09:05:49.412Z,26.65
2022-08-21T09:08:30.636Z,26.69
2022-08-21T09:11:02.561Z,26.66
2022-08-21T09:13:49.855Z,26.60
2022-08-21T09:16:33.072Z,26.53
2022-08-21T09:19:03.928Z,26.48
2022-08-21T09:21:34.565Z,26.42
2022-08-21T09:24:06.417Z,26.40
2022-08-21T09:26:42.056Z,26.42
2022-08-21T09:29:13.014Z,26.49
2022-08-21T09:31:40.776Z,26.60
2022-08-21T09:34:11.148Z,26.72
2022-08-21T09:36:44.236Z,26.76
2022-08-21T09:39:13.978Z,26.77
2022-08-21T09:41:41.815Z,26.85
2022-08-21T09:44:09.853Z,26.94
2022-08-21T09:46:37.637Z,27.00
2022-08-21T09:49:06.724Z,27.08
2022-08-21T09:51:37.863Z,27.14
2022-08-21T09:54:08.665Z,27.15
2022-08-21T09:57:10.753Z,27.17
2022-08-21T09:59:39.315Z,27.15
2022-08-21T10:02:25.320Z,27.07
2022-08-21T10:05:00.783Z,27.03
2022-08-21T10:07:30.695Z,26.95
2022-08-21T10:10:03.377Z,26.87
2022-08-21T10:12:51.676Z,26.86
2022-08-21T10:15:43.262Z,26.87
2022-08-21T10:18:36.173Z,26.86
2022-08-21T10:21:12.026Z,26.88
2022-08-21T10:23:40.386Z,26.86
2022-08-21T10:26:23.207Z,26.79
2022-08-21T10:29:10.061Z,26.77
2022-08-21T10:32:01.175Z,26.76
2022-08-21T10:34:35.146Z,26.81
2022-08-21T10:37:11.926Z,26.92
2022-08-21T10:39:42.942Z,26.94
2022-08-21T10:42:30.708Z,27.02
2022-08-21T10:45:02.413Z,27.05
2022-08-21T10:47:57.711Z,27.15
2022-08-21T10:50:28.955Z,27.25
2022-08-21T10:52:59.585Z,27.34
2022-08-21T10:55:36.861Z,27.41
2022-08-21T10:58:12.653Z,27.46
2022-08-21T11:00:45.412Z,27.64
2022-08-21T11:03:19.265Z,27.85
2022-08-21T11:05:51.143Z,28.06
2022-08-21T11:08:22.759Z,28.22
2022-08-21T11:10:59.532Z,28.30
2022-08-21T11:13:55.049Z,28.38
2022-08-21T11:16:26.761Z,28.40
2022-08-21T11:19:00.067Z,28.44
2022-08-21T11:21:31.296Z,28.53
2022-08-21T11:24:18.281Z,28.53
2022-08-21T11:26:53.580Z,28.48
2022-08-21T11:29:21.412Z,28.39
2022-08-21T11:31:49.588Z,28.37
2022-08-21T11:34:36.608Z,28.35
2022-08-21T11:37:10.828Z,28.32
2022-08-21T11:39:50.682Z,28.23
2022-08-21T11:42:27.713Z,28.14
2022-08-21T11:44:58.832Z,28.04
2022-08-21T11:47:45.836Z,27.98
2022-08-21T11:50:29.641Z,27.95
2022-08-21T11:53:17.608Z,27.90
2022-08-21T11:55:52.524Z,27.84
2022-08-21T11:58:20.347Z,27.79
2022-08-21T12:00:51.458Z,27.74
2022-08-21T12:03:37.043Z,27.67
2022-08-21T12:06:10.440Z,27.68
2022-08-21T12:08:42.864Z,27.69
2022-08-21T12:11:17.257Z,27.71
2022-08-21T12:13:54.134Z,27.77
2022-08-21T12:16:33.095Z,27.82
2022-08-21T12:19:05.485Z,27.84
2022-08-21T12:21:34.454Z,27.83
2022-08-21T12:24:14.300Z,27.82
2022-08-21T12:26:51.245Z,27.79
2022-08-21T12:29:33.349Z,27.77
2022-08-21T12:32:06.179Z,27.83
2022-08-21T12:34:42.978Z,27.90
2022-08-21T12:37:23.926Z,27.89
2022-08-21T12:39:53.908Z,27.84
2022-08-21T12:42:25.092Z,27.83
2022-08-21T12:45:04.288Z,27.85
2022-08-21T12:47:35.681Z,27.87
2022-08-21T12:50:08.007Z,27.92
2022-08-21T12:52:46.887Z,28.00
2022-08-21T12:55:17.112Z,28.06
2022-08-21T12:57:45.138Z,28.08
2022-08-21T13:00:14.486Z,28.15
2022-08-21T13:02:48.780Z,28.18
2022-08-21T13:05:20.763Z,28.35
2022-08-21T13:07:50.215Z,28.64
2022-08-21T13:10:21.376Z,28.82
2022-08-21T13:12:50.401Z,28.96
2022-08-21T13:15:25.168Z,29.07
2022-08-21T13:18:05.440Z,29.08
2022-08-21T13:20:36.957Z,29.18
2022-08-21T13:23:08.253Z,29.17
2022-08-21T13:25:38.037Z,29.16
2022-08-21T13:28:10.600Z,29.19
2022-08-21T13:30:49.124Z,29.17
2022-08-21T13:33:18.609Z,29.09
2022-08-21T13:35:52.666Z,29.03
2022-08-21T13:38:21.911Z,28.97
2022-08-21T13:40:57.928Z,29.00
2022-08-21T13:43:33.303Z,29.07
2022-08-21T13:46:02.181Z,29.05
2022-08-21T13:48:34.227Z,28.96
2022-08-21T13:51:03.078Z,28.92
2022-08-21T13:53:31.510Z,28.86
2022-08-21T13:56:01.067Z,28.71
2022-08-21T13:58:34.728Z,28.61
2022-08-21T14:01:06.419Z,28.49
2022-08-21T14:03:46.702Z,28.43
2022-08-21T14:06:19.124Z,28.53
2022-08-21T14:08:56.669Z,28.65
2022-08-21T14:11:25.216Z,28.64
2022-08-21T14:14:02.156Z,28.65
2022-08-21T14:16:42.507Z,28.65
2022-08-21T14:19:18.912Z,28.57
2022-08-21T14:21:47.149Z,28.51
2022-08-21T14:24:25.547Z,28.47
2022-08-21T14:26:56.293Z,28.55
2022-08-21T14:29:27.023Z,28.71
2022-08-21T14:31:57.183Z,28.80
2022-08-21T14:34:34.099Z,28.93
2022-08-21T14:37:03.644Z,29.08
2022-08-21T14:39:31.414Z,29.23
2022-08-21T14:41:59.661Z,29.36
2022-08-21T14:44:28.022Z,29.33
2022-08-21T14:46:57.165Z,29.22
2022-08-21T14:49:27.797Z,29.12
2022-08-21T14:51:58.105Z,28.98
2022-08-21T14:54:31.475Z,28.86
2022-08-21T14:57:02.101Z,28.71
2022-08-21T14:59:30.851Z,28.62
2022-08-21T15:01:58.625Z,28.55
2022-08-21T15:04:26.768Z,28.46
2022-08-21T15:06:54.551Z,28.42
2022-08-21T15:09:22.416Z,28.38
2022-08-21T15:11:51.095Z,28.33
2022-08-21T15:14:21.793Z,28.30
2022-08-21T15:16:50.179Z,28.22
2022-08-21T15:19:18.563Z,28.20
2022-08-21T15:21:46.330Z,28.20
2022-08-21T15:24:14.587Z,28.15
2022-08-21T15:26:42.774Z,28.14
2022-08-21T15:29:11.036Z,28.13
2022-08-21T15:31:51.248Z,28.12
2022-08-21T15:34:19.391Z,28.10
2022-08-21T15:36:47.533Z,28.11
2022-08-21T15:39:15.817Z,28.13
2022-08-21T15:41:43.696Z,28.13
2022-08-21T15:44:13.512Z,28.17
2022-08-21T15:46:41.708Z,28.20
2022-08-21T15:49:10.284Z,28.24
2022-08-21T15:51:43.593Z,28.20
2022-08-21T15:54:12.277Z,28.21
2022-08-21T15:56:41.896Z,28.21
2022-08-21T15:59:14.668Z,28.20
2022-08-21T16:01:44.612Z,27.97
2022-08-21T16:04:19.736Z,27.65
2022-08-21T16:06:55.318Z,27.39
2022-08-21T16:09:25.050Z,27.06
2022-08-21T16:11:53.126Z,26.85
2022-08-21T16:14:21.075Z,26.64
2022-08-21T16:16:49.165Z,26.42
2022-08-21T16:19:17.437Z,26.25
2022-08-21T16:21:45.913Z,26.06
2022-08-21T16:24:14.437Z,25.85
2022-08-21T16:26:42.443Z,25.68
2022-08-21T16:29:11.519Z,25.56
2022-08-21T16:31:40.313Z,25.37
2022-08-21T16:34:08.391Z,25.24
2022-08-21T16:36:36.642Z,25.22
2022-08-21T16:39:04.766Z,25.16
2022-08-21T16:41:35.029Z,25.07
2022-08-21T16:44:03.736Z,25.00
2022-08-21T16:46:34.575Z,24.98
2022-08-21T16:49:03.174Z,24.88
2022-08-21T16:51:31.702Z,24.83
2022-08-21T16:54:00.388Z,24.82
2022-08-21T16:56:28.866Z,24.75
2022-08-21T16:58:58.345Z,24.66
2022-08-21T17:01:28.295Z,24.62
2022-08-21T17:03:56.325Z,24.55
2022-08-21T17:06:28.073Z,24.51
2022-08-21T17:08:58.216Z,24.49
2022-08-21T17:11:37.503Z,24.45
2022-08-21T17:14:11.825Z,24.44
2022-08-21T17:16:40.793Z,24.45
2022-08-21T17:19:09.117Z,24.44
2022-08-21T17:21:37.605Z,24.46
2022-08-21T17:24:05.616Z,24.47
2022-08-21T17:26:33.551Z,24.43
2022-08-21T17:29:02.662Z,24.41
2022-08-21T17:31:31.830Z,24.39
2022-08-21T17:33:59.844Z,24.37
2022-08-21T17:36:29.219Z,24.35
2022-08-21T17:38:58.523Z,24.32
2022-08-21T17:41:27.035Z,24.32
2022-08-21T17:43:55.487Z,24.31
2022-08-21T17:46:25.011Z,24.32
2022-08-21T17:48:53.068Z,24.34
2022-08-21T17:51:21.640Z,24.33
2022-08-21T17:53:50.341Z,24.28
2022-08-21T17:56:19.121Z,24.26
2022-08-21T17:58:57.761Z,24.24
2022-08-21T18:01:26.850Z,24.21
2022-08-21T18:03:55.326Z,24.18
2022-08-21T18:06:26.098Z,24.15
2022-08-21T18:09:01.496Z,24.16
2022-08-21T18:11:31.241Z,24.16
2022-08-21T18:14:06.616Z,24.16
2022-08-21T18:16:37.852Z,24.15
2022-08-21T18:19:10.402Z,24.12
2022-08-21T18:21:38.279Z,24.10
2022-08-21T18:24:06.306Z,24.10
2022-08-21T18:26:36.736Z,24.08
2022-08-21T18:29:06.568Z,24.07
2022-08-21T18:31:36.824Z,24.03
2022-08-21T18:34:09.176Z,24.01
2022-08-21T18:36:39.278Z,23.99
2022-08-21T18:39:34.214Z,23.93
2022-08-21T18:41:56.987Z,23.86
2022-08-21T18:44:27.421Z,23.86
2022-08-21T18:46:56.886Z,23.82
2022-08-21T18:49:25.298Z,23.78
2022-08-21T18:51:54.236Z,23.71
2022-08-21T18:54:22.303Z,23.66
2022-08-21T18:56:55.003Z,23.65
2022-08-21T18:59:24.406Z,23.60
2022-08-21T19:01:53.397Z,23.56
2022-08-21T19:04:42.824Z,23.58
2022-08-21T19:07:11.117Z,23.58
2022-08-21T19:09:42.725Z,23.58
2022-08-21T19:12:14.952Z,23.56
2022-08-21T19:14:42.830Z,23.55
2022-08-21T19:17:11.709Z,23.55
2022-08-21T19:19:39.711Z,23.54
2022-08-21T19:22:11.074Z,23.52
2022-08-21T19:24:40.256Z,23.48
2022-08-21T19:27:20.646Z,23.48
2022-08-21T19:29:54.592Z,23.52
2022-08-21T19:32:22.842Z,23.53
2022-08-21T19:34:51.270Z,23.54
2022-08-21T19:37:20.657Z,23.55
2022-08-21T19:39:50.527Z,23.54
2022-08-21T19:42:22.187Z,23.53
2022-08-21T19:44:57.813Z,23.55
2022-08-21T19:47:29.298Z,23.57
2022-08-21T19:49:59.444Z,23.53
2022-08-21T19:52:27.963Z,23.54
2022-08-21T19:54:58.243Z,23.52
2022-08-21T19:57:26.715Z,23.54
2022-08-21T19:59:55.250Z,23.54
2022-08-21T20:02:23.352Z,23.54
2022-08-21T20:04:53.822Z,23.56
2022-08-21T20:07:40.168Z,23.56
2022-08-21T20:10:08.644Z,23.53
2022-08-21T20:12:42.161Z,23.50
2022-08-21T20:15:10.276Z,23.49
2022-08-21T20:17:39.166Z,23.46
2022-08-21T20:20:09.939Z,23.47
2022-08-21T20:22:42.176Z,23.48
2022-08-21T20:25:10.315Z,23.46
2022-08-21T20:27:40.694Z,23.44
2022-08-21T20:30:09.216Z,23.43
2022-08-21T20:32:38.405Z,23.45
2022-08-21T20:35:12.434Z,23.45
2022-08-21T20:37:42.702Z,23.44
2022-08-21T20:40:12.038Z,23.43
2022-08-21T20:42:44.890Z,23.39
2022-08-21T20:45:31.814Z,23.38
2022-08-21T20:48:12.059Z,23.39
2022-08-21T20:50:44.895Z,23.38
2022-08-21T20:53:23.623Z,23.37
2022-08-21T20:55:52.425Z,23.34
2022-08-21T20:58:34.498Z,23.31
2022-08-21T21:01:06.280Z,23.30
2022-08-21T21:03:37.591Z,23.26
2022-08-21T21:06:15.352Z,23.26
2022-08-21T21:08:47.170Z,23.27
2022-08-21T21:11:24.874Z,23.27
2022-08-21T21:14:00.963Z,23.26
2022-08-21T21:16:41.659Z,23.23
2022-08-21T21:19:40.525Z,23.20
2022-08-21T21:22:09.679Z,23.21
2022-08-21T21:24:53.328Z,23.20
2022-08-21T21:27:27.743Z,23.18
2022-08-21T21:30:00.912Z,23.18
2022-08-21T21:32:32.668Z,23.19
2022-08-21T21:35:06.353Z,23.19
2022-08-21T21:37:52.211Z,23.16
2022-08-21T21:40:37.445Z,23.16
2022-08-21T21:43:20.281Z,23.14
2022-08-21T21:45:55.348Z,23.11
2022-08-21T21:48:38.755Z,23.08
2022-08-21T21:51:16.270Z,23.05
2022-08-21T21:53:45.834Z,23.05
2022-08-21T21:56:27.604Z,23.04
2022-08-21T21:59:29.867Z,23.04
2022-08-21T22:01:58.954Z,23.00
2022-08-21T22:04:36.194Z,22.97
2022-08-21T22:07:25.425Z,22.94
2022-08-21T22:09:56.525Z,22.93
2022-08-21T22:12:49.778Z,22.94
2022-08-21T22:15:27.401Z,22.90
2022-08-21T22:18:19.139Z,22.90
2022-08-21T22:20:50.086Z,22.90
2022-08-21T22:23:21.065Z,22.92
2022-08-21T22:25:52.099Z,22.95
2022-08-21T22:28:26.540Z,23.01
2022-08-21T22:30:56.860Z,23.06
2022-08-21T22:33:26.364Z,23.07
2022-08-21T22:35:59.919Z,23.05
2022-08-21T22:38:36.263Z,23.07
2022-08-21T22:41:12.910Z,23.08
2022-08-21T22:43:52.148Z,23.10
2022-08-21T22:46:28.965Z,23.11
2022-08-21T22:49:00.181Z,23.11
2022-08-21T22:51:35.280Z,23.13
2022-08-21T22:54:04.752Z,23.16
2022-08-21T22:56:49.433Z,23.19
2022-08-21T22:59:27.897Z,23.20
2022-08-21T23:02:07.640Z,23.19
2022-08-21T23:04:46.094Z,23.16
2022-08-21T23:07:34.512Z,23.12
2022-08-21T23:10:07.385Z,23.08
2022-08-21T23:12:43.748Z,23.07
2022-08-21T23:18:12.217Z,23.14
2022-08-21T23:20:44.304Z,23.13
2022-08-21T23:23:26.850Z,23.09
2022-08-21T23:25:55.991Z,23.05
2022-08-21T23:28:37.025Z,23.03
2022-08-21T23:31:25.103Z,23.01
2022-08-21T23:34:20.220Z,22.98
2022-08-21T23:37:25.761Z,22.93
2022-08-21T23:40:23.092Z,22.92
2022-08-21T23:43:11.809Z,22.94
2022-08-21T23:46:10.088Z,22.94
2022-08-21T23:48:51.919Z,22.93
2022-08-21T23:54:23.533Z,22.91
2022-08-21T23:57:13.882Z,22.90
2022-08-21T23:59:52.583Z,22.91
